createdAt,value
2018-03-21T00:01:33.079Z,0.80
2018-03-21T00:04:08.596Z,0.70
2018-03-21T00:06:43.842Z,0.70
2018-03-21T00:09:17.865Z,0.60
2018-03-21T00:11:54.215Z,0.60
2018-03-21T00:14:30.519Z,0.70
2018-03-21T00:17:05.304Z,0.70
2018-03-21T00:19:39.117Z,0.70
2018-03-21T00:22:14.050Z,0.60
2018-03-21T00:24:48.983Z,0.70
2018-03-21T00:27:23.877Z,0.70
2018-03-21T00:29:57.815Z,0.70
2018-03-21T00:32:33.315Z,0.70
2018-03-21T00:35:08.192Z,0.60
2018-03-21T00:37:43.930Z,0.60
2018-03-21T00:40:18.925Z,0.50
2018-03-21T00:42:53.501Z,0.50
2018-03-21T00:45:27.715Z,0.60
2018-03-21T00:48:02.845Z,0.40
2018-03-21T00:50:36.772Z,0.40
2018-03-21T00:53:10.964Z,0.40
2018-03-21T00:55:45.280Z,0.60
2018-03-21T00:58:19.182Z,0.60
2018-03-21T01:00:54.236Z,0.40
2018-03-21T01:03:29.038Z,0.40
2018-03-21T01:06:03.160Z,0.40
2018-03-21T01:08:37.373Z,0.40
2018-03-21T01:11:14.146Z,0.00
2018-03-21T01:13:48.367Z,0.00
2018-03-21T01:16:24.756Z,-0.20
2018-03-21T01:18:59.549Z,-0.20
2018-03-21T01:21:35.103Z,-0.20
2018-03-21T01:24:09.117Z,-0.30
2018-03-21T01:26:43.531Z,-0.40
2018-03-21T01:29:17.540Z,-0.50
2018-03-21T01:31:52.476Z,-0.60
2018-03-21T01:34:27.818Z,-0.60
2018-03-21T01:37:03.160Z,-0.80
2018-03-21T01:39:37.159Z,-0.80
2018-03-21T01:42:11.289Z,-0.70
2018-03-21T01:44:46.103Z,-0.80
2018-03-21T01:47:19.899Z,-0.90
2018-03-21T01:49:55.146Z,-1.10
2018-03-21T01:52:30.172Z,-1.10
2018-03-21T01:55:04.916Z,-1.10
2018-03-21T01:57:38.803Z,-1.10
2018-03-21T02:00:17.285Z,-1.00
2018-03-21T02:02:51.122Z,-1.00
2018-03-21T02:05:25.760Z,-0.90
2018-03-21T02:08:00.559Z,-1.10
2018-03-21T02:10:34.504Z,-1.10
2018-03-21T02:13:09.011Z,-1.20
2018-03-21T02:15:43.359Z,-1.30
2018-03-21T02:18:17.948Z,-1.50
2018-03-21T02:20:51.965Z,-1.50
2018-03-21T02:23:25.762Z,-1.50
2018-03-21T02:26:00.507Z,-1.90
2018-03-21T02:28:34.611Z,-1.90
2018-03-21T02:31:09.838Z,-2.00
2018-03-21T02:33:45.711Z,-2.10
2018-03-21T02:36:20.324Z,-2.20
2018-03-21T02:38:55.459Z,-2.20
2018-03-21T02:41:29.263Z,-2.40
2018-03-21T02:44:03.880Z,-2.50
2018-03-21T02:46:37.911Z,-2.50
2018-03-21T02:49:11.909Z,-2.60
2018-03-21T02:51:46.741Z,-2.80
2018-03-21T02:54:21.871Z,-2.70
2018-03-21T02:56:56.596Z,-2.80
2018-03-21T02:59:30.501Z,-2.70
2018-03-21T03:02:05.224Z,-2.70
2018-03-21T03:04:40.052Z,-2.80
2018-03-21T03:07:14.784Z,-2.80
2018-03-21T03:09:48.759Z,-2.80
2018-03-21T03:12:24.341Z,-2.80
2018-03-21T03:14:59.062Z,-2.90
2018-03-21T03:17:33.999Z,-3.00
2018-03-21T03:20:08.008Z,-3.00
2018-03-21T03:22:42.730Z,-3.10
2018-03-21T03:25:16.631Z,-3.10
2018-03-21T03:27:51.387Z,-3.30
2018-03-21T03:30:26.188Z,-3.40
2018-03-21T03:33:00.107Z,-3.40
2018-03-21T03:35:36.356Z,-3.40
2018-03-21T03:38:11.122Z,-3.60
2018-03-21T03:40:45.640Z,-3.60
2018-03-21T03:43:20.256Z,-3.70
2018-03-21T03:45:55.263Z,-3.80
2018-03-21T03:48:29.685Z,-3.80
2018-03-21T03:51:05.045Z,-3.80
2018-03-21T03:53:39.140Z,-3.90
2018-03-21T03:56:13.879Z,-3.90
2018-03-21T03:58:47.788Z,-3.90
2018-03-21T04:01:24.159Z,-4.10
2018-03-21T04:03:58.255Z,-4.10
2018-03-21T04:06:33.186Z,-4.00
2018-03-21T04:09:07.486Z,-4.10
2018-03-21T04:11:42.753Z,-4.10
2018-03-21T04:14:17.352Z,-4.10
2018-03-21T04:16:53.414Z,-4.10
2018-03-21T04:19:27.833Z,-4.00
2018-03-21T04:22:04.204Z,-4.10
2018-03-21T04:24:39.019Z,-4.10
2018-03-21T04:27:13.751Z,-4.10
2018-03-21T04:29:47.760Z,-4.10
2018-03-21T04:32:22.091Z,-4.10
2018-03-21T04:34:56.712Z,-4.30
2018-03-21T04:37:33.166Z,-4.30
2018-03-21T04:40:08.110Z,-4.40
2018-03-21T04:42:43.335Z,-4.50
2018-03-21T04:45:19.006Z,-4.50
2018-03-21T04:47:53.835Z,-4.50
2018-03-21T04:50:28.032Z,-4.50
2018-03-21T04:53:04.180Z,-4.40
2018-03-21T04:55:40.454Z,-4.40
2018-03-21T04:58:14.688Z,-4.40
2018-03-21T05:00:49.812Z,-4.30
2018-03-21T05:03:24.521Z,-4.50
2018-03-21T05:05:59.686Z,-4.60
2018-03-21T05:08:35.017Z,-4.60
2018-03-21T05:11:10.033Z,-4.50
2018-03-21T05:13:44.559Z,-4.60
2018-03-21T05:16:20.215Z,-4.70
2018-03-21T05:18:54.938Z,-4.70
2018-03-21T05:21:29.469Z,-4.70
2018-03-21T05:24:04.591Z,-4.50
2018-03-21T05:26:38.490Z,-4.60
2018-03-21T05:29:13.593Z,-4.70
2018-03-21T05:31:48.778Z,-4.60
2018-03-21T05:34:22.873Z,-4.70
2018-03-21T05:36:56.677Z,-4.70
2018-03-21T05:39:31.799Z,-4.60
2018-03-21T05:42:05.851Z,-4.60
2018-03-21T05:44:42.943Z,-4.60
2018-03-21T05:47:18.985Z,-4.60
2018-03-21T05:49:53.606Z,-4.60
2018-03-21T05:52:28.745Z,-4.60
2018-03-21T05:55:05.208Z,-4.60
2018-03-21T05:57:41.163Z,-4.60
2018-03-21T06:00:15.607Z,-4.60
2018-03-21T06:02:52.141Z,-4.60
2018-03-21T06:05:27.085Z,-4.60
2018-03-21T06:08:02.948Z,-4.60
2018-03-21T06:10:36.961Z,-4.60
2018-03-21T06:13:11.788Z,-4.50
2018-03-21T06:15:46.944Z,-4.50
2018-03-21T06:18:23.891Z,-4.50
2018-03-21T06:21:00.243Z,-4.40
2018-03-21T06:23:35.076Z,-4.20
2018-03-21T06:26:09.742Z,-4.20
2018-03-21T06:28:44.630Z,-4.00
2018-03-21T06:31:19.460Z,-3.90
2018-03-21T06:33:54.087Z,-3.90
2018-03-21T06:36:30.470Z,-3.60
2018-03-21T06:39:04.459Z,-3.60
2018-03-21T06:41:41.132Z,-3.20
2018-03-21T06:44:15.550Z,-3.20
2018-03-21T06:46:49.965Z,-3.00
2018-03-21T06:49:24.182Z,-2.70
2018-03-21T06:51:59.202Z,-2.60
2018-03-21T06:54:33.839Z,-2.20
2018-03-21T06:57:08.418Z,-2.20
2018-03-21T06:59:46.887Z,-1.90
2018-03-21T07:02:22.112Z,-1.90
2018-03-21T07:04:56.319Z,-1.90
2018-03-21T07:07:31.830Z,-1.60
2018-03-21T07:10:06.595Z,-1.40
2018-03-21T07:12:40.325Z,-1.40
2018-03-21T07:15:27.006Z,-1.10
2018-03-21T07:18:02.042Z,-1.20
2018-03-21T07:20:36.987Z,-1.00
2018-03-21T07:23:11.701Z,-1.00
2018-03-21T07:25:46.481Z,-0.90
2018-03-21T07:28:22.572Z,-0.90
2018-03-21T07:30:56.704Z,-0.80
2018-03-21T07:33:31.619Z,-0.70
2018-03-21T07:36:05.764Z,-0.80
2018-03-21T07:38:39.914Z,-0.70
2018-03-21T07:41:14.852Z,-0.50
2018-03-21T07:43:49.521Z,-0.40
2018-03-21T07:46:24.586Z,0.20
2018-03-21T07:49:00.190Z,0.40
2018-03-21T07:51:34.211Z,0.40
2018-03-21T07:54:10.997Z,0.60
2018-03-21T07:56:45.776Z,1.10
2018-03-21T07:59:22.906Z,1.00
2018-03-21T08:01:57.811Z,2.30
2018-03-21T08:04:32.204Z,2.70
2018-03-21T08:07:07.090Z,3.10
2018-03-21T08:09:42.023Z,3.10
2018-03-21T08:12:16.330Z,3.50
2018-03-21T08:14:50.849Z,3.50
2018-03-21T08:17:25.157Z,3.90
2018-03-21T08:20:01.685Z,3.80
2018-03-21T08:22:36.051Z,4.20
2018-03-21T08:25:10.839Z,4.20
2018-03-21T08:27:44.936Z,4.00
2018-03-21T08:30:20.600Z,4.40
2018-03-21T08:32:55.359Z,4.50
2018-03-21T08:35:29.980Z,4.50
2018-03-21T08:38:05.305Z,4.90
2018-03-21T08:40:42.290Z,4.80
2018-03-21T08:43:17.445Z,5.30
2018-03-21T08:45:52.568Z,5.20
2018-03-21T08:48:27.194Z,6.00
2018-03-21T08:51:01.196Z,6.00
2018-03-21T08:53:35.720Z,5.80
2018-03-21T08:56:10.921Z,5.70
2018-03-21T08:58:46.005Z,6.00
2018-03-21T09:01:21.226Z,6.60
2018-03-21T09:03:55.877Z,7.00
2018-03-21T09:06:31.812Z,6.70
2018-03-21T09:09:05.727Z,6.60
2018-03-21T09:11:41.447Z,5.90
2018-03-21T09:14:16.096Z,5.10
2018-03-21T09:16:51.042Z,5.10
2018-03-21T09:19:25.124Z,5.50
2018-03-21T09:21:59.510Z,5.90
2018-03-21T09:24:34.487Z,6.20
2018-03-21T09:27:08.924Z,6.20
2018-03-21T09:29:42.712Z,6.50
2018-03-21T09:32:17.760Z,7.10
2018-03-21T09:34:53.582Z,7.00
2018-03-21T09:37:27.344Z,7.60
2018-03-21T09:40:02.138Z,7.30
2018-03-21T09:42:37.070Z,7.70
2018-03-21T09:45:11.856Z,7.70
2018-03-21T09:47:46.228Z,7.80
2018-03-21T09:50:21.865Z,7.70
2018-03-21T09:52:56.565Z,7.60
2018-03-21T09:55:31.901Z,7.70
2018-03-21T09:58:05.695Z,7.60
2018-03-21T10:00:41.185Z,8.90
2018-03-21T10:03:15.798Z,9.00
2018-03-21T10:05:51.034Z,8.90
2018-03-21T10:08:25.760Z,8.80
2018-03-21T10:11:01.206Z,8.80
2018-03-21T10:13:35.918Z,8.20
2018-03-21T10:16:11.983Z,8.40
2018-03-21T10:18:45.752Z,8.40
2018-03-21T10:21:21.941Z,8.30
2018-03-21T10:23:56.056Z,8.30
2018-03-21T10:26:30.681Z,8.50
2018-03-21T10:29:04.475Z,8.70
2018-03-21T10:31:39.073Z,9.50
2018-03-21T10:34:13.000Z,9.50
2018-03-21T10:36:47.835Z,9.50
2018-03-21T10:39:23.895Z,9.30
2018-03-21T10:41:58.828Z,9.50
2018-03-21T10:44:34.371Z,9.50
2018-03-21T10:47:09.227Z,9.50
2018-03-21T10:49:44.031Z,9.10
2018-03-21T10:52:19.073Z,9.10
2018-03-21T10:54:52.987Z,8.70
2018-03-21T10:57:27.698Z,8.40
2018-03-21T11:00:01.801Z,8.30
2018-03-21T11:02:43.000Z,8.90
2018-03-21T11:05:18.109Z,8.90
2018-03-21T11:07:53.380Z,8.70
2018-03-21T11:10:28.112Z,9.80
2018-03-21T11:13:02.122Z,9.80
2018-03-21T11:15:36.413Z,10.20
2018-03-21T11:18:10.537Z,9.80
2018-03-21T11:20:44.527Z,9.10
2018-03-21T11:23:19.992Z,9.00
2018-03-21T11:25:54.602Z,9.50
2018-03-21T11:28:29.847Z,10.00
2018-03-21T11:31:04.554Z,10.10
2018-03-21T11:33:39.951Z,10.10
2018-03-21T11:36:14.647Z,10.20
2018-03-21T11:38:48.795Z,10.20
2018-03-21T11:41:23.753Z,9.10
2018-03-21T11:43:58.079Z,9.10
2018-03-21T11:46:33.134Z,9.10
2018-03-21T11:49:07.226Z,9.00
2018-03-21T11:51:44.305Z,9.80
2018-03-21T11:54:20.573Z,10.30
2018-03-21T11:56:54.772Z,10.20
2018-03-21T11:59:29.424Z,10.20
2018-03-21T12:02:04.825Z,9.90
2018-03-21T12:04:38.723Z,9.90
2018-03-21T12:07:13.375Z,9.70
2018-03-21T12:09:47.810Z,9.50
2018-03-21T12:12:22.314Z,9.40
2018-03-21T12:14:57.149Z,9.60
2018-03-21T12:17:32.606Z,9.90
2018-03-21T12:20:07.351Z,9.90
2018-03-21T12:22:42.129Z,9.90
2018-03-21T12:25:16.886Z,10.70
2018-03-21T12:27:51.765Z,10.90
2018-03-21T12:30:25.704Z,10.90
2018-03-21T12:32:59.816Z,11.40
2018-03-21T12:35:33.729Z,11.50
2018-03-21T12:38:08.266Z,11.50
2018-03-21T12:40:43.068Z,11.70
2018-03-21T12:43:17.699Z,11.60
2018-03-21T12:45:54.067Z,11.90
2018-03-21T12:48:27.975Z,11.80
2018-03-21T12:51:02.186Z,11.80
2018-03-21T12:53:36.924Z,12.40
2018-03-21T12:56:10.708Z,12.30
2018-03-21T12:58:45.247Z,11.90
2018-03-21T13:01:19.939Z,11.90
2018-03-21T13:03:53.858Z,11.40
2018-03-21T13:06:28.694Z,9.90
2018-03-21T13:09:03.337Z,9.90
2018-03-21T13:11:38.148Z,10.30
2018-03-21T13:14:13.716Z,10.20
2018-03-21T13:16:48.527Z,10.20
2018-03-21T13:19:23.265Z,11.60
2018-03-21T13:21:58.587Z,11.60
2018-03-21T13:24:33.408Z,12.50
2018-03-21T13:27:08.266Z,13.40
2018-03-21T13:29:43.686Z,13.50
2018-03-21T13:32:17.699Z,13.50
2018-03-21T13:34:52.246Z,14.10
2018-03-21T13:37:26.753Z,15.70
2018-03-21T13:40:02.081Z,15.90
2018-03-21T13:42:36.806Z,14.20
2018-03-21T13:45:11.466Z,14.60
2018-03-21T13:47:45.146Z,14.60
2018-03-21T13:50:19.159Z,17.10
2018-03-21T13:52:55.403Z,17.70
2018-03-21T13:55:30.637Z,18.30
2018-03-21T13:58:05.879Z,18.20
2018-03-21T14:00:40.212Z,18.10
2018-03-21T14:03:14.815Z,18.00
2018-03-21T14:05:49.924Z,17.80
2018-03-21T14:08:23.860Z,17.70
2018-03-21T14:10:59.834Z,18.10
2018-03-21T14:13:34.026Z,18.00
2018-03-21T14:16:10.802Z,18.80
2018-03-21T14:18:45.335Z,18.90
2018-03-21T14:21:21.695Z,19.20
2018-03-21T14:23:56.757Z,20.30
2018-03-21T14:26:31.228Z,20.20
2018-03-21T14:29:05.142Z,20.20
2018-03-21T14:31:39.129Z,20.10
2018-03-21T14:34:14.080Z,19.70
2018-03-21T14:36:49.094Z,19.60
2018-03-21T14:39:23.968Z,20.90
2018-03-21T14:42:01.179Z,20.50
2018-03-21T14:44:35.143Z,20.40
2018-03-21T14:47:09.848Z,19.50
2018-03-21T14:49:44.381Z,19.80
2018-03-21T14:52:19.383Z,19.80
2018-03-21T14:54:53.430Z,20.00
2018-03-21T14:57:27.662Z,19.80
2018-03-21T15:00:02.267Z,20.00
2018-03-21T15:02:36.698Z,19.20
2018-03-21T15:05:14.177Z,19.40
2018-03-21T15:07:48.969Z,19.00
2018-03-21T15:10:24.706Z,18.90
2018-03-21T15:13:00.355Z,19.30
2018-03-21T15:15:34.901Z,19.50
2018-03-21T15:18:09.996Z,19.50
2018-03-21T15:20:44.480Z,20.30
2018-03-21T15:23:20.632Z,19.80
2018-03-21T15:25:54.648Z,19.80
2018-03-21T15:28:29.407Z,18.80
2018-03-21T15:31:03.174Z,18.80
2018-03-21T15:33:37.066Z,19.50
2018-03-21T15:36:12.958Z,18.70
2018-03-21T15:38:47.720Z,17.10
2018-03-21T15:41:22.692Z,17.90
2018-03-21T15:43:56.596Z,17.90
2018-03-21T15:46:31.315Z,18.60
2018-03-21T15:49:06.152Z,19.30
2018-03-21T15:51:41.762Z,19.90
2018-03-21T15:54:15.305Z,19.80
2018-03-21T15:56:52.186Z,20.50
2018-03-21T15:59:27.003Z,19.90
2018-03-21T16:02:03.593Z,20.90
2018-03-21T16:04:37.448Z,20.90
2018-03-21T16:07:12.013Z,21.20
2018-03-21T16:09:46.852Z,21.80
2018-03-21T16:12:21.560Z,21.90
2018-03-21T16:14:55.576Z,21.90
2018-03-21T16:17:30.596Z,21.40
2018-03-21T16:20:05.650Z,21.30
2018-03-21T16:22:42.500Z,21.20
2018-03-21T16:25:17.029Z,21.50
2018-03-21T16:27:52.360Z,21.50
2018-03-21T16:30:27.095Z,20.90
2018-03-21T16:33:02.847Z,20.90
2018-03-21T16:35:36.550Z,21.10
2018-03-21T16:38:12.088Z,20.20
2018-03-21T16:40:46.068Z,20.20
2018-03-21T16:43:21.668Z,18.40
2018-03-21T16:45:56.382Z,18.70
2018-03-21T16:48:30.597Z,18.70
2018-03-21T16:51:05.127Z,18.50
2018-03-21T16:53:39.223Z,18.50
2018-03-21T16:56:13.244Z,18.40
2018-03-21T16:58:47.855Z,16.90
2018-03-21T17:01:23.718Z,16.20
2018-03-21T17:03:58.227Z,15.10
2018-03-21T17:06:32.120Z,15.10
2018-03-21T17:09:06.641Z,13.60
2018-03-21T17:11:40.462Z,13.60
2018-03-21T17:14:15.363Z,12.20
2018-03-21T17:16:49.246Z,12.10
2018-03-21T17:19:23.815Z,11.20
2018-03-21T17:21:58.098Z,11.20
2018-03-21T17:24:32.548Z,9.30
2018-03-21T17:27:07.039Z,8.60
2018-03-21T17:29:41.604Z,7.70
2018-03-21T17:32:16.316Z,7.30
2018-03-21T17:34:50.180Z,7.20
2018-03-21T17:37:24.463Z,6.90
2018-03-21T17:39:58.225Z,6.40
2018-03-21T17:42:33.141Z,5.90
2018-03-21T17:45:06.853Z,5.90
2018-03-21T17:47:40.780Z,5.60
2018-03-21T17:50:15.610Z,4.90
2018-03-21T17:52:51.128Z,4.80
2018-03-21T17:55:25.012Z,4.80
2018-03-21T17:57:58.922Z,4.70
2018-03-21T18:00:33.808Z,4.30
2018-03-21T18:03:09.682Z,4.20
2018-03-21T18:05:43.227Z,4.20
2018-03-21T18:08:16.918Z,3.90
2018-03-21T18:10:50.646Z,3.60
2018-03-21T18:13:25.092Z,3.20
2018-03-21T18:15:59.179Z,3.20
2018-03-21T18:18:32.944Z,3.20
2018-03-21T18:21:07.321Z,2.70
2018-03-21T18:23:42.148Z,2.70
2018-03-21T18:26:15.841Z,2.70
2018-03-21T18:28:50.873Z,2.50
2018-03-21T18:31:24.896Z,2.40
2018-03-21T18:33:58.712Z,2.20
2018-03-21T18:36:33.414Z,2.10
2018-03-21T18:39:08.216Z,1.90
2018-03-21T18:41:42.833Z,1.90
2018-03-21T18:44:16.524Z,1.90
2018-03-21T18:46:51.031Z,1.90
2018-03-21T18:49:25.002Z,1.90
2018-03-21T18:51:59.930Z,1.50
2018-03-21T18:54:34.128Z,1.40
2018-03-21T18:57:08.257Z,1.40
2018-03-21T18:59:43.980Z,1.30
2018-03-21T19:02:17.900Z,1.30
2018-03-21T19:04:54.834Z,1.10
2018-03-21T19:07:30.201Z,1.10
2018-03-21T19:10:04.885Z,1.20
2018-03-21T19:12:39.152Z,1.20
2018-03-21T19:15:14.715Z,1.00
2018-03-21T19:17:48.543Z,1.00
2018-03-21T19:20:22.426Z,1.00
2018-03-21T19:22:57.463Z,0.60
2018-03-21T19:25:32.741Z,0.60
2018-03-21T19:28:07.521Z,0.40
2018-03-21T19:30:41.748Z,0.40
2018-03-21T19:33:17.703Z,0.30
2018-03-21T19:35:53.248Z,-0.10
2018-03-21T19:38:27.362Z,-0.10
2018-03-21T19:41:01.482Z,0.00
2018-03-21T19:43:35.376Z,0.20
2018-03-21T19:46:11.194Z,0.10
2018-03-21T19:48:45.331Z,0.10
2018-03-21T19:51:19.564Z,-0.10
2018-03-21T19:53:53.679Z,-0.30
2018-03-21T19:56:27.782Z,-0.40
2018-03-21T19:59:02.907Z,-0.40
2018-03-21T20:01:37.252Z,-0.50
2018-03-21T20:04:11.472Z,-0.40
2018-03-21T20:06:46.084Z,-0.50
2018-03-21T20:09:21.135Z,-0.40
2018-03-21T20:11:55.189Z,-0.50
2018-03-21T20:14:29.743Z,-0.30
2018-03-21T20:17:03.970Z,-0.30
2018-03-21T20:19:38.689Z,-0.50
2018-03-21T20:22:15.586Z,-0.40
2018-03-21T20:24:54.922Z,-0.40
2018-03-21T20:27:29.267Z,-0.50
2018-03-21T20:30:04.039Z,-0.80
2018-03-21T20:32:38.574Z,-0.90
2018-03-21T20:35:12.803Z,-1.00
2018-03-21T20:37:47.781Z,-1.30
2018-03-21T20:40:23.646Z,-1.40
2018-03-21T20:42:57.748Z,-1.20
2018-03-21T20:45:31.915Z,-1.10
2018-03-21T20:48:06.405Z,-1.00
2018-03-21T20:50:41.831Z,-1.10
2018-03-21T20:53:15.792Z,-1.10
2018-03-21T20:55:50.756Z,-1.50
2018-03-21T20:58:25.701Z,-1.60
2018-03-21T21:01:00.275Z,-1.60
2018-03-21T21:03:35.268Z,-1.40
2018-03-21T21:06:12.769Z,-1.40
2018-03-21T21:08:46.542Z,-1.40
2018-03-21T21:11:22.013Z,-1.50
2018-03-21T21:13:55.904Z,-1.50
2018-03-21T21:16:29.934Z,-1.50
2018-03-21T21:19:04.339Z,-1.40
2018-03-21T21:21:38.174Z,-1.40
2018-03-21T21:24:12.293Z,-1.70
2018-03-21T21:26:47.188Z,-2.00
2018-03-21T21:29:23.261Z,-2.00
2018-03-21T21:31:57.050Z,-2.10
2018-03-21T21:34:31.588Z,-2.20
2018-03-21T21:37:10.687Z,-2.20
2018-03-21T21:39:45.835Z,-2.20
2018-03-21T21:42:22.069Z,-2.40
2018-03-21T21:44:56.585Z,-2.50
2018-03-21T21:47:32.795Z,-2.50
2018-03-21T21:50:06.971Z,-2.50
2018-03-21T21:52:42.134Z,-2.50
2018-03-21T21:55:16.676Z,-2.60
2018-03-21T21:57:52.763Z,-2.50
2018-03-21T22:00:26.959Z,-2.50
2018-03-21T22:03:02.279Z,-2.50
2018-03-21T22:05:36.172Z,-2.70
2018-03-21T22:08:12.850Z,-2.90
2018-03-21T22:10:48.522Z,-2.80
2018-03-21T22:13:23.450Z,-2.80
2018-03-21T22:15:58.492Z,-2.90
2018-03-21T22:18:33.598Z,-2.90
2018-03-21T22:21:08.117Z,-3.00
2018-03-21T22:23:42.537Z,-2.90
2018-03-21T22:26:16.409Z,-3.10
2018-03-21T22:28:51.352Z,-3.10
2018-03-21T22:31:25.079Z,-3.00
2018-03-21T22:33:59.109Z,-2.90
2018-03-21T22:36:34.219Z,-2.90
2018-03-21T22:39:08.628Z,-3.10
2018-03-21T22:41:42.752Z,-3.10
2018-03-21T22:44:17.083Z,-3.20
2018-03-21T22:46:52.344Z,-3.10
2018-03-21T22:49:26.731Z,-3.20
2018-03-21T22:52:02.912Z,-3.20
2018-03-21T22:54:36.992Z,-3.40
2018-03-21T22:57:11.957Z,-3.70
2018-03-21T22:59:45.632Z,-3.70
2018-03-21T23:02:19.849Z,-3.70
2018-03-21T23:04:56.595Z,-3.70
2018-03-21T23:07:33.383Z,-3.40
2018-03-21T23:10:09.276Z,-3.60
2018-03-21T23:12:44.608Z,-3.80
2018-03-21T23:15:20.575Z,-3.90
2018-03-21T23:17:57.622Z,-3.90
2018-03-21T23:20:32.975Z,-3.90
2018-03-21T23:23:06.785Z,-3.90
2018-03-21T23:25:43.113Z,-3.70
2018-03-21T23:28:17.051Z,-3.70
2018-03-21T23:30:51.259Z,-3.90
2018-03-21T23:33:25.907Z,-4.10
2018-03-21T23:36:02.139Z,-4.10
2018-03-21T23:38:36.070Z,-4.10
2018-03-21T23:41:12.122Z,-3.90
2018-03-21T23:43:46.760Z,-3.70
2018-03-21T23:46:22.389Z,-3.70
2018-03-21T23:48:56.278Z,-3.70
2018-03-21T23:51:31.553Z,-4.10
2018-03-21T23:54:05.534Z,-4.00
2018-03-21T23:56:40.713Z,-4.20
2018-03-21T23:59:15.505Z,-4.20
